createdAt,value
2023-01-26T00:02:09.916Z,4.39
2023-01-26T00:04:39.140Z,4.40
2023-01-26T00:07:08.387Z,4.38
2023-01-26T00:09:37.618Z,4.39
2023-01-26T00:12:07.364Z,4.36
2023-01-26T00:14:50.037Z,4.30
2023-01-26T00:17:27.819Z,4.31
2023-01-26T00:19:58.755Z,4.29
2023-01-26T00:22:28.343Z,4.21
2023-01-26T00:24:57.629Z,4.12
2023-01-26T00:27:26.842Z,4.12
2023-01-26T00:29:56.090Z,4.09
2023-01-26T00:32:25.354Z,4.10
2023-01-26T00:34:54.655Z,4.13
2023-01-26T00:37:23.895Z,4.14
2023-01-26T00:39:53.429Z,4.12
2023-01-26T00:42:24.196Z,4.09
2023-01-26T00:44:53.477Z,4.06
2023-01-26T00:47:22.657Z,4.08
2023-01-26T00:49:52.513Z,4.13
2023-01-26T00:52:21.973Z,4.16
2023-01-26T00:54:52.678Z,4.13
2023-01-26T00:57:21.899Z,4.11
2023-01-26T00:59:51.115Z,4.12
2023-01-26T01:02:20.713Z,4.10
2023-01-26T01:04:51.706Z,4.11
2023-01-26T01:07:21.500Z,4.10
2023-01-26T01:09:50.832Z,4.12
2023-01-26T01:12:20.099Z,4.12
2023-01-26T01:14:50.155Z,4.13
2023-01-26T01:17:19.699Z,4.14
2023-01-26T01:19:48.926Z,4.15
2023-01-26T01:22:18.457Z,4.15
2023-01-26T01:24:47.663Z,4.13
2023-01-26T01:27:16.920Z,4.15
2023-01-26T01:29:46.204Z,4.17
2023-01-26T01:32:15.645Z,4.16
2023-01-26T01:34:48.257Z,4.16
2023-01-26T01:37:18.522Z,4.16
2023-01-26T01:39:49.412Z,4.14
2023-01-26T01:42:19.899Z,4.18
2023-01-26T01:45:24.447Z,4.16
2023-01-26T01:47:59.225Z,4.09
2023-01-26T01:50:33.398Z,4.07
2023-01-26T01:53:03.080Z,4.06
2023-01-26T01:55:32.782Z,4.06
2023-01-26T01:58:05.071Z,4.06
2023-01-26T02:00:34.400Z,4.01
2023-01-26T02:03:16.709Z,4.01
2023-01-26T02:05:56.225Z,4.02
2023-01-26T02:08:54.257Z,4.05
2023-01-26T02:11:44.962Z,4.03
2023-01-26T02:14:16.103Z,4.03
2023-01-26T02:16:45.411Z,4.02
2023-01-26T02:20:02.620Z,4.06
2023-01-26T02:22:47.687Z,4.10
2023-01-26T02:26:04.310Z,4.07
2023-01-26T02:28:33.721Z,4.05
2023-01-26T02:31:04.744Z,4.02
2023-01-26T02:33:34.873Z,4.01
2023-01-26T02:36:07.901Z,4.02
2023-01-26T02:38:46.668Z,4.01
2023-01-26T02:41:36.359Z,4.01
2023-01-26T02:44:10.470Z,4.00
2023-01-26T02:46:39.810Z,3.96
2023-01-26T02:49:27.773Z,3.94
2023-01-26T02:51:57.082Z,3.97
2023-01-26T02:54:49.278Z,3.94
2023-01-26T02:57:19.292Z,3.89
2023-01-26T02:59:48.703Z,3.88
2023-01-26T03:02:19.087Z,3.90
2023-01-26T03:04:48.342Z,3.94
2023-01-26T03:07:17.756Z,3.97
2023-01-26T03:09:46.952Z,3.98
2023-01-26T03:12:16.183Z,3.96
2023-01-26T03:14:45.429Z,3.94
2023-01-26T03:17:14.701Z,3.97
2023-01-26T03:20:02.305Z,3.85
2023-01-26T03:22:50.385Z,3.84
2023-01-26T03:25:38.239Z,3.80
2023-01-26T03:28:07.718Z,3.73
2023-01-26T03:30:37.399Z,3.66
2023-01-26T03:33:06.771Z,3.59
2023-01-26T03:35:36.041Z,3.61
2023-01-26T03:38:05.283Z,3.62
2023-01-26T03:41:02.536Z,3.69
2023-01-26T03:43:50.790Z,3.62
2023-01-26T03:46:38.550Z,3.60
2023-01-26T03:49:27.206Z,3.67
2023-01-26T03:52:15.631Z,3.69
2023-01-26T03:55:03.295Z,3.72
2023-01-26T03:57:33.434Z,3.70
2023-01-26T04:00:03.428Z,3.72
2023-01-26T04:03:00.509Z,3.70
2023-01-26T04:05:48.184Z,3.76
2023-01-26T04:08:29.664Z,3.77
2023-01-26T04:11:03.769Z,3.79
2023-01-26T04:13:51.275Z,3.80
2023-01-26T04:16:48.420Z,3.77
2023-01-26T04:19:36.923Z,3.78
2023-01-26T04:22:06.684Z,3.84
2023-01-26T04:24:37.527Z,3.83
2023-01-26T04:27:06.783Z,3.83
2023-01-26T04:29:39.657Z,3.84
2023-01-26T04:32:10.406Z,3.84
2023-01-26T04:34:40.062Z,3.82
2023-01-26T04:37:16.511Z,3.85
2023-01-26T04:39:49.296Z,3.80
2023-01-26T04:42:19.538Z,3.84
2023-01-26T04:44:48.818Z,3.85
2023-01-26T04:47:18.888Z,3.82
2023-01-26T04:49:48.643Z,3.82
2023-01-26T04:52:21.670Z,3.80
2023-01-26T04:54:51.565Z,3.79
2023-01-26T04:57:21.224Z,3.70
2023-01-26T04:59:52.705Z,3.64
2023-01-26T05:02:23.118Z,3.67
2023-01-26T05:04:52.693Z,3.69
2023-01-26T05:07:23.173Z,3.67
2023-01-26T05:09:52.669Z,3.70
2023-01-26T05:12:42.885Z,3.71
2023-01-26T05:15:36.153Z,3.65
2023-01-26T05:18:11.394Z,3.62
2023-01-26T05:20:55.363Z,3.62
2023-01-26T05:23:27.994Z,3.65
2023-01-26T05:26:25.190Z,3.64
2023-01-26T05:29:08.036Z,3.58
2023-01-26T05:31:37.481Z,3.60
2023-01-26T05:34:06.780Z,3.63
2023-01-26T05:36:38.025Z,3.64
2023-01-26T05:39:08.688Z,3.63
2023-01-26T05:41:38.010Z,3.66
2023-01-26T05:44:33.120Z,3.64
2023-01-26T05:47:07.846Z,3.65
2023-01-26T05:49:42.995Z,3.68
2023-01-26T05:52:20.089Z,3.67
2023-01-26T05:54:49.468Z,3.66
2023-01-26T05:57:19.959Z,3.66
2023-01-26T05:59:56.807Z,3.59
2023-01-26T06:02:29.321Z,3.58
2023-01-26T06:04:58.657Z,3.55
2023-01-26T06:07:28.369Z,3.61
2023-01-26T06:10:10.579Z,3.60
2023-01-26T06:12:51.084Z,3.58
2023-01-26T06:15:39.341Z,3.61
2023-01-26T06:18:08.659Z,3.65
2023-01-26T06:20:38.709Z,3.62
2023-01-26T06:23:11.915Z,3.57
2023-01-26T06:25:41.695Z,3.58
2023-01-26T06:28:10.957Z,3.60
2023-01-26T06:30:40.317Z,3.61
2023-01-26T06:33:13.531Z,3.59
2023-01-26T06:35:42.837Z,3.57
2023-01-26T06:38:15.501Z,3.56
2023-01-26T06:40:44.910Z,3.62
2023-01-26T06:43:14.139Z,3.63
2023-01-26T06:45:44.723Z,3.65
2023-01-26T06:48:14.015Z,3.74
2023-01-26T06:50:45.865Z,3.80
2023-01-26T06:53:42.574Z,3.82
2023-01-26T06:56:25.329Z,3.84
2023-01-26T06:59:33.025Z,3.84
2023-01-26T07:02:22.310Z,3.85
2023-01-26T07:04:52.018Z,3.87
2023-01-26T07:07:21.437Z,3.92
2023-01-26T07:09:50.706Z,3.93
2023-01-26T07:12:19.944Z,3.96
2023-01-26T07:14:51.387Z,3.99
2023-01-26T07:17:20.619Z,4.07
2023-01-26T07:19:49.967Z,4.08
2023-01-26T07:22:19.187Z,4.05
2023-01-26T07:24:48.386Z,4.04
2023-01-26T07:27:17.625Z,4.08
2023-01-26T07:29:46.971Z,4.11
2023-01-26T07:32:16.200Z,4.17
2023-01-26T07:34:45.421Z,4.19
2023-01-26T07:37:15.073Z,4.24
2023-01-26T07:39:44.314Z,4.26
2023-01-26T07:42:13.549Z,4.26
2023-01-26T07:45:02.405Z,4.28
2023-01-26T07:47:32.150Z,4.32
2023-01-26T07:50:01.666Z,4.37
2023-01-26T07:52:32.400Z,4.40
2023-01-26T07:55:01.668Z,4.43
2023-01-26T07:57:34.323Z,4.45
2023-01-26T08:00:04.552Z,4.48
2023-01-26T08:02:41.123Z,4.50
2023-01-26T08:05:10.673Z,4.53
2023-01-26T08:07:40.126Z,4.55
2023-01-26T08:10:11.186Z,4.61
2023-01-26T08:12:41.342Z,4.64
2023-01-26T08:15:11.372Z,4.67
2023-01-26T08:17:40.609Z,4.67
2023-01-26T08:20:12.454Z,4.71
2023-01-26T08:22:41.877Z,4.76
2023-01-26T08:25:11.152Z,4.77
2023-01-26T08:27:40.375Z,4.82
2023-01-26T08:30:11.081Z,4.89
2023-01-26T08:32:40.590Z,4.89
2023-01-26T08:35:10.391Z,4.89
2023-01-26T08:37:39.819Z,4.83
2023-01-26T08:40:10.791Z,4.89
2023-01-26T08:42:40.188Z,4.91
2023-01-26T08:45:10.017Z,4.89
2023-01-26T08:47:39.350Z,4.91
2023-01-26T08:50:10.604Z,5.00
2023-01-26T08:52:40.138Z,5.07
2023-01-26T08:55:09.930Z,5.13
2023-01-26T08:57:39.656Z,5.16
2023-01-26T09:00:10.439Z,5.15
2023-01-26T09:02:39.938Z,5.15
2023-01-26T09:05:09.748Z,5.17
2023-01-26T09:07:39.143Z,5.15
2023-01-26T09:10:09.969Z,5.20
2023-01-26T09:12:41.039Z,5.23
2023-01-26T09:15:11.287Z,5.25
2023-01-26T09:17:42.453Z,5.26
2023-01-26T09:20:13.071Z,5.31
2023-01-26T09:22:42.778Z,5.37
2023-01-26T09:25:12.715Z,5.40
2023-01-26T09:27:42.185Z,5.43
2023-01-26T09:30:12.495Z,5.51
2023-01-26T09:32:41.769Z,5.55
2023-01-26T09:35:14.275Z,5.62
2023-01-26T09:37:44.719Z,5.66
2023-01-26T09:40:26.059Z,5.71
2023-01-26T09:43:07.698Z,5.76
2023-01-26T09:46:00.740Z,5.81
2023-01-26T09:48:56.280Z,5.87
2023-01-26T09:51:36.308Z,5.84
2023-01-26T09:54:39.324Z,5.75
2023-01-26T09:57:40.993Z,5.77
2023-01-26T10:00:26.373Z,5.83
2023-01-26T10:03:44.824Z,5.91
2023-01-26T10:06:28.602Z,5.89
2023-01-26T10:09:23.239Z,5.83
2023-01-26T10:12:01.992Z,5.83
2023-01-26T10:14:51.210Z,5.85
2023-01-26T10:17:34.818Z,5.84
2023-01-26T10:20:31.592Z,5.84
2023-01-26T10:23:14.340Z,5.87
2023-01-26T10:25:47.054Z,5.91
2023-01-26T10:28:32.849Z,5.92
2023-01-26T10:31:05.569Z,5.93
2023-01-26T10:33:37.805Z,5.95
2023-01-26T10:36:08.362Z,5.93
2023-01-26T10:38:37.919Z,5.89
2023-01-26T10:41:18.569Z,5.83
2023-01-26T10:44:23.865Z,5.82
2023-01-26T10:47:17.524Z,5.84
2023-01-26T10:49:47.158Z,5.85
2023-01-26T10:52:27.876Z,5.85
2023-01-26T10:55:20.887Z,5.80
2023-01-26T10:57:50.416Z,5.80
2023-01-26T11:00:25.224Z,5.83
2023-01-26T11:03:19.917Z,5.83
2023-01-26T11:06:17.017Z,5.85
2023-01-26T11:08:46.433Z,5.82
2023-01-26T11:11:30.053Z,5.77
2023-01-26T11:14:18.661Z,5.73
2023-01-26T11:17:22.772Z,5.72
2023-01-26T11:20:24.208Z,5.76
2023-01-26T11:23:09.274Z,5.80
2023-01-26T11:26:02.845Z,5.82
2023-01-26T11:28:59.351Z,5.83
2023-01-26T11:32:16.526Z,5.79
2023-01-26T11:35:16.282Z,5.76
2023-01-26T11:38:01.037Z,5.76
2023-01-26T11:41:09.588Z,5.82
2023-01-26T11:44:19.504Z,5.77
2023-01-26T11:47:03.961Z,5.69
2023-01-26T11:49:44.835Z,5.63
2023-01-26T11:52:48.812Z,5.62
2023-01-26T11:55:42.694Z,5.59
2023-01-26T11:58:31.866Z,5.63
2023-01-26T12:01:18.657Z,5.61
2023-01-26T12:03:52.620Z,5.57
2023-01-26T12:06:42.281Z,5.54
2023-01-26T12:09:27.047Z,5.55
2023-01-26T12:12:23.918Z,5.50
2023-01-26T12:14:55.525Z,5.49
2023-01-26T12:17:41.860Z,5.54
2023-01-26T12:20:50.241Z,5.58
2023-01-26T12:24:02.492Z,5.58
2023-01-26T12:26:39.070Z,5.49
2023-01-26T12:29:19.089Z,5.42
2023-01-26T12:31:54.113Z,5.45
2023-01-26T12:34:33.815Z,5.45
2023-01-26T12:37:39.895Z,5.49
2023-01-26T12:40:29.906Z,5.47
2023-01-26T12:43:45.082Z,5.43
2023-01-26T12:46:16.421Z,5.38
2023-01-26T12:49:13.757Z,5.37
2023-01-26T12:51:58.514Z,5.37
2023-01-26T12:54:40.155Z,5.40
2023-01-26T12:57:17.789Z,5.41
2023-01-26T12:59:49.216Z,5.44
2023-01-26T13:02:31.790Z,5.44
2023-01-26T13:05:03.449Z,5.46
2023-01-26T13:07:39.955Z,5.46
2023-01-26T13:10:16.194Z,5.46
2023-01-26T13:13:20.645Z,5.47
2023-01-26T13:16:15.720Z,5.49
2023-01-26T13:18:59.239Z,5.44
2023-01-26T13:21:40.516Z,5.38
2023-01-26T13:24:19.062Z,5.36
2023-01-26T13:26:58.898Z,5.36
2023-01-26T13:29:28.184Z,5.35
2023-01-26T13:32:02.290Z,5.32
2023-01-26T13:34:39.358Z,5.23
2023-01-26T13:37:21.611Z,5.14
2023-01-26T13:40:00.368Z,5.08
2023-01-26T13:42:56.584Z,5.04
2023-01-26T13:45:47.470Z,5.03
2023-01-26T13:48:36.177Z,5.05
2023-01-26T13:51:09.177Z,5.05
2023-01-26T13:54:06.613Z,5.05
2023-01-26T13:56:39.872Z,4.98
2023-01-26T13:59:19.481Z,4.92
2023-01-26T14:01:55.460Z,4.89
2023-01-26T14:04:31.370Z,4.85
2023-01-26T14:07:19.025Z,4.87
2023-01-26T14:09:51.221Z,4.89
2023-01-26T14:12:33.450Z,4.76
2023-01-26T14:15:07.446Z,4.68
2023-01-26T14:17:48.656Z,4.67
2023-01-26T14:20:36.533Z,4.63
2023-01-26T14:23:19.466Z,4.57
2023-01-26T14:25:57.746Z,4.53
2023-01-26T14:28:34.414Z,4.47
2023-01-26T14:31:15.658Z,4.35
2023-01-26T14:33:45.298Z,4.31
2023-01-26T14:36:18.615Z,4.34
2023-01-26T14:38:52.423Z,4.24
2023-01-26T14:41:34.275Z,4.26
2023-01-26T14:44:06.067Z,4.28
2023-01-26T14:47:17.184Z,4.32
2023-01-26T14:50:05.195Z,4.27
2023-01-26T14:52:39.496Z,4.27
2023-01-26T14:55:24.017Z,4.32
2023-01-26T14:57:54.287Z,4.29
2023-01-26T15:00:42.201Z,4.30
2023-01-26T15:03:28.979Z,4.32
2023-01-26T15:06:28.503Z,4.27
2023-01-26T15:09:25.637Z,4.22
2023-01-26T15:12:18.497Z,4.20
2023-01-26T15:14:59.887Z,4.15
2023-01-26T15:17:43.062Z,4.11
2023-01-26T15:20:33.374Z,4.07
2023-01-26T15:23:02.631Z,4.05
2023-01-26T15:25:34.153Z,3.96
2023-01-26T15:28:04.286Z,3.92
2023-01-26T15:30:37.735Z,3.99
2023-01-26T15:33:36.177Z,4.01
2023-01-26T15:36:20.120Z,3.96
2023-01-26T15:38:49.365Z,3.94
2023-01-26T15:41:18.676Z,3.93
2023-01-26T15:43:47.898Z,3.96
2023-01-26T15:46:17.341Z,3.97
2023-01-26T15:48:46.989Z,3.91
2023-01-26T15:51:16.262Z,3.91
2023-01-26T15:53:45.619Z,3.92
2023-01-26T15:56:16.685Z,3.93
2023-01-26T15:58:45.943Z,3.93
2023-01-26T16:01:21.984Z,3.93
2023-01-26T16:03:51.983Z,3.92
2023-01-26T16:06:24.224Z,3.96
2023-01-26T16:08:54.947Z,3.91
2023-01-26T16:11:33.610Z,3.87
2023-01-26T16:14:04.288Z,3.77
2023-01-26T16:16:33.839Z,3.79
2023-01-26T16:19:03.097Z,3.80
2023-01-26T16:21:36.294Z,3.82
2023-01-26T16:24:06.067Z,3.80
2023-01-26T16:26:35.301Z,3.79
2023-01-26T16:29:04.731Z,3.74
2023-01-26T16:31:36.804Z,3.68
2023-01-26T16:34:06.226Z,3.67
2023-01-26T16:36:35.454Z,3.70
2023-01-26T16:39:05.406Z,3.75
2023-01-26T16:41:34.725Z,3.75
2023-01-26T16:44:13.316Z,3.73
2023-01-26T16:46:42.898Z,3.71
2023-01-26T16:49:15.793Z,3.72
2023-01-26T16:51:45.460Z,3.72
2023-01-26T16:54:14.753Z,3.74
2023-01-26T16:56:44.384Z,3.78
2023-01-26T16:59:13.632Z,3.78
2023-01-26T17:01:42.968Z,3.73
2023-01-26T17:04:12.197Z,3.71
2023-01-26T17:06:41.723Z,3.74
2023-01-26T17:09:11.043Z,3.76
2023-01-26T17:11:40.268Z,3.78
2023-01-26T17:14:13.053Z,3.76
2023-01-26T17:16:42.392Z,3.73
2023-01-26T17:19:11.646Z,3.74
2023-01-26T17:21:41.155Z,3.72
2023-01-26T17:24:10.554Z,3.69
2023-01-26T17:26:40.183Z,3.68
2023-01-26T17:29:11.424Z,3.72
2023-01-26T17:31:40.844Z,3.69
2023-01-26T17:34:10.090Z,3.71
2023-01-26T17:36:39.313Z,3.70
2023-01-26T17:39:10.961Z,3.64
2023-01-26T17:41:40.194Z,3.66
2023-01-26T17:44:09.422Z,3.65
2023-01-26T17:46:38.636Z,3.61
2023-01-26T17:49:07.917Z,3.62
2023-01-26T17:51:37.215Z,3.65
2023-01-26T17:54:06.542Z,3.65
2023-01-26T17:56:35.754Z,3.66
2023-01-26T17:59:04.997Z,3.69
2023-01-26T18:01:34.673Z,3.67
2023-01-26T18:04:04.005Z,3.63
2023-01-26T18:06:33.312Z,3.57
2023-01-26T18:09:02.607Z,3.54
2023-01-26T18:11:32.153Z,3.55
2023-01-26T18:14:02.789Z,3.56
2023-01-26T18:16:32.094Z,3.60
2023-01-26T18:19:02.861Z,3.61
2023-01-26T18:21:34.707Z,3.62
2023-01-26T18:24:05.886Z,3.60
2023-01-26T18:26:37.614Z,3.56
2023-01-26T18:29:08.842Z,3.54
2023-01-26T18:31:42.211Z,3.56
2023-01-26T18:34:12.196Z,3.57
2023-01-26T18:36:41.500Z,3.52
2023-01-26T18:39:14.685Z,3.52
2023-01-26T18:41:44.252Z,3.52
2023-01-26T18:44:13.544Z,3.52
2023-01-26T18:46:42.769Z,3.57
2023-01-26T18:49:12.372Z,3.58
2023-01-26T18:51:47.887Z,3.55
2023-01-26T18:54:20.105Z,3.53
2023-01-26T18:56:49.469Z,3.54
2023-01-26T18:59:18.762Z,3.60
2023-01-26T19:01:48.818Z,3.61
2023-01-26T19:04:18.524Z,3.59
2023-01-26T19:06:48.052Z,3.54
2023-01-26T19:09:17.446Z,3.56
2023-01-26T19:11:47.113Z,3.57
2023-01-26T19:14:16.424Z,3.59
2023-01-26T19:16:49.004Z,3.59
2023-01-26T19:19:18.300Z,3.57
2023-01-26T19:21:47.625Z,3.55
2023-01-26T19:24:16.906Z,3.53
2023-01-26T19:26:46.230Z,3.52
2023-01-26T19:29:16.149Z,3.51
2023-01-26T19:31:45.733Z,3.50
2023-01-26T19:34:16.988Z,3.48
2023-01-26T19:36:46.933Z,3.48
2023-01-26T19:39:16.179Z,3.49
2023-01-26T19:41:46.457Z,3.52
2023-01-26T19:44:15.901Z,3.55
2023-01-26T19:46:45.149Z,3.55
2023-01-26T19:49:15.122Z,3.56
2023-01-26T19:51:44.375Z,3.55
2023-01-26T19:54:14.678Z,3.54
2023-01-26T19:56:44.036Z,3.53
2023-01-26T19:59:13.371Z,3.50
2023-01-26T20:01:42.837Z,3.53
2023-01-26T20:04:14.797Z,3.55
2023-01-26T20:06:44.061Z,3.52
2023-01-26T20:09:13.305Z,3.52
2023-01-26T20:11:42.492Z,3.54
2023-01-26T20:14:11.929Z,3.49
2023-01-26T20:16:41.281Z,3.49
2023-01-26T20:19:12.988Z,3.48
2023-01-26T20:21:43.009Z,3.47
2023-01-26T20:24:16.482Z,3.45
2023-01-26T20:26:46.734Z,3.50
2023-01-26T20:29:20.062Z,3.52
2023-01-26T20:31:50.619Z,3.49
2023-01-26T20:34:22.066Z,3.37
2023-01-26T20:36:51.714Z,3.32
2023-01-26T20:39:25.156Z,3.36
2023-01-26T20:41:55.227Z,3.40
2023-01-26T20:44:24.586Z,3.39
2023-01-26T20:46:54.420Z,3.42
2023-01-26T20:49:24.070Z,3.44
2023-01-26T20:51:53.335Z,3.46
2023-01-26T20:54:23.219Z,3.45
2023-01-26T20:56:52.695Z,3.45
2023-01-26T20:59:22.627Z,3.43
2023-01-26T21:01:51.967Z,3.42
2023-01-26T21:04:21.327Z,3.44
2023-01-26T21:06:50.759Z,3.42
2023-01-26T21:09:21.229Z,3.44
2023-01-26T21:11:50.481Z,3.44
2023-01-26T21:14:19.755Z,3.45
2023-01-26T21:16:48.965Z,3.39
2023-01-26T21:19:18.285Z,3.38
2023-01-26T21:21:47.645Z,3.38
2023-01-26T21:24:17.009Z,3.37
2023-01-26T21:26:47.934Z,3.37
2023-01-26T21:29:17.283Z,3.33
2023-01-26T21:31:48.806Z,3.32
2023-01-26T21:34:18.131Z,3.33
2023-01-26T21:36:47.425Z,3.31
2023-01-26T21:39:17.553Z,3.32
2023-01-26T21:41:55.611Z,3.29
2023-01-26T21:44:31.454Z,3.29
2023-01-26T21:47:06.339Z,3.30
2023-01-26T21:49:35.608Z,3.29
2023-01-26T21:52:23.452Z,3.30
2023-01-26T21:54:52.688Z,3.25
2023-01-26T21:57:40.535Z,3.26
2023-01-26T22:00:10.995Z,3.25
2023-01-26T22:02:40.831Z,3.14
2023-01-26T22:05:10.226Z,3.14
2023-01-26T22:07:39.626Z,3.19
2023-01-26T22:10:10.475Z,3.20
2023-01-26T22:12:39.876Z,3.19
2023-01-26T22:15:10.004Z,3.11
2023-01-26T22:17:39.313Z,3.11
2023-01-26T22:20:10.212Z,3.10
2023-01-26T22:22:39.693Z,3.10
2023-01-26T22:25:09.708Z,3.09
2023-01-26T22:27:40.825Z,3.12
2023-01-26T22:30:11.792Z,3.15
2023-01-26T22:32:42.958Z,3.10
2023-01-26T22:35:12.174Z,3.10
2023-01-26T22:37:41.517Z,3.08
2023-01-26T22:40:12.246Z,3.04
2023-01-26T22:42:42.089Z,3.05
2023-01-26T22:45:12.064Z,3.02
2023-01-26T22:47:41.402Z,3.05
2023-01-26T22:50:11.777Z,3.02
2023-01-26T22:52:41.464Z,3.04
2023-01-26T22:55:10.862Z,3.03
2023-01-26T22:57:40.122Z,3.00
2023-01-26T23:00:10.574Z,2.96
2023-01-26T23:02:39.963Z,2.99
2023-01-26T23:05:09.509Z,3.01
2023-01-26T23:07:38.704Z,3.00
2023-01-26T23:10:08.768Z,2.97
2023-01-26T23:12:37.997Z,2.96
2023-01-26T23:15:08.035Z,2.96
2023-01-26T23:17:37.275Z,2.94
2023-01-26T23:20:07.494Z,2.98
2023-01-26T23:22:36.765Z,3.01
2023-01-26T23:25:25.227Z,3.02
2023-01-26T23:27:54.430Z,3.02
2023-01-26T23:30:23.891Z,3.00
2023-01-26T23:32:53.079Z,2.98
2023-01-26T23:35:23.430Z,2.95
2023-01-26T23:37:53.518Z,2.94
2023-01-26T23:40:22.756Z,2.94
2023-01-26T23:43:06.897Z,2.92
2023-01-26T23:45:42.551Z,2.94
2023-01-26T23:48:12.299Z,2.95
2023-01-26T23:50:42.650Z,2.91
2023-01-26T23:53:12.622Z,2.92
2023-01-26T23:55:43.691Z,2.95
2023-01-26T23:58:13.200Z,2.99
